createdAt,value
2019-02-18T00:00:07.493Z,14.10
2019-02-18T00:02:44.994Z,16.90
2019-02-18T00:05:22.605Z,14.77
2019-02-18T00:08:00.101Z,14.90
2019-02-18T00:10:37.569Z,14.50
2019-02-18T00:13:15.095Z,15.07
2019-02-18T00:15:58.107Z,15.07
2019-02-18T00:18:35.608Z,14.37
2019-02-18T00:21:13.110Z,14.20
2019-02-18T00:23:50.596Z,14.13
2019-02-18T00:26:34.640Z,13.50
2019-02-18T00:29:12.155Z,15.63
2019-02-18T00:31:49.669Z,14.60
2019-02-18T00:34:27.156Z,15.17
2019-02-18T00:37:07.783Z,14.20
2019-02-18T00:39:45.277Z,13.63
2019-02-18T00:42:25.478Z,14.03
2019-02-18T00:45:06.301Z,14.93
2019-02-18T00:47:43.862Z,14.67
2019-02-18T00:50:21.352Z,15.57
2019-02-18T00:52:58.852Z,15.23
2019-02-18T00:55:41.561Z,16.10
2019-02-18T00:58:19.073Z,16.20
2019-02-18T01:00:56.542Z,16.23
2019-02-18T01:03:34.048Z,15.00
2019-02-18T01:06:11.631Z,15.73
2019-02-18T01:08:49.141Z,15.10
2019-02-18T01:11:26.615Z,14.13
2019-02-18T01:14:04.111Z,16.00
2019-02-18T01:16:41.698Z,15.10
2019-02-18T01:19:19.186Z,15.33
2019-02-18T01:21:56.663Z,15.17
2019-02-18T01:24:34.160Z,15.93
2019-02-18T01:27:11.664Z,15.53
2019-02-18T01:29:49.140Z,15.17
2019-02-18T01:32:26.680Z,14.53
2019-02-18T01:35:07.681Z,14.23
2019-02-18T01:37:46.292Z,14.30
2019-02-18T01:40:22.671Z,14.37
2019-02-18T01:43:00.216Z,15.80
2019-02-18T01:45:37.785Z,14.53
2019-02-18T01:48:15.272Z,14.97
2019-02-18T01:50:52.764Z,15.23
2019-02-18T01:53:30.267Z,16.17
2019-02-18T01:56:21.932Z,15.13
2019-02-18T01:58:59.440Z,16.20
2019-02-18T02:01:36.930Z,15.57
2019-02-18T02:04:14.426Z,14.93
2019-02-18T02:06:55.334Z,14.90
2019-02-18T02:09:32.840Z,14.67
2019-02-18T02:12:10.344Z,16.53
2019-02-18T02:14:51.072Z,16.23
2019-02-18T02:17:28.600Z,15.63
2019-02-18T02:20:06.169Z,15.23
2019-02-18T02:22:43.659Z,15.77
2019-02-18T02:25:37.848Z,15.83
2019-02-18T02:28:15.363Z,16.17
2019-02-18T02:30:52.850Z,16.10
2019-02-18T02:33:30.346Z,15.27
2019-02-18T02:36:24.301Z,16.50
2019-02-18T02:39:01.817Z,15.80
2019-02-18T02:41:39.330Z,15.43
2019-02-18T02:44:16.841Z,16.20
2019-02-18T02:46:54.327Z,15.77
2019-02-18T02:49:31.850Z,15.50
2019-02-18T02:52:09.323Z,15.90
2019-02-18T02:54:47.709Z,15.37
2019-02-18T02:57:25.214Z,16.20
2019-02-18T03:00:02.724Z,15.70
2019-02-18T03:02:40.222Z,15.00
2019-02-18T03:05:17.810Z,14.63
2019-02-18T03:07:55.319Z,15.93
2019-02-18T03:10:32.805Z,15.70
2019-02-18T03:13:10.296Z,16.30
2019-02-18T03:15:47.877Z,15.93
2019-02-18T03:18:25.392Z,15.30
2019-02-18T03:21:02.878Z,16.47
2019-02-18T03:23:40.389Z,15.47
2019-02-18T03:26:27.579Z,15.03
2019-02-18T03:29:50.939Z,16.20
2019-02-18T03:32:28.596Z,15.67
2019-02-18T03:35:09.756Z,15.73
2019-02-18T03:37:47.271Z,16.13
2019-02-18T03:40:24.769Z,15.23
2019-02-18T03:43:02.257Z,15.57
2019-02-18T03:45:42.228Z,14.80
2019-02-18T03:48:20.157Z,15.50
2019-02-18T03:50:57.624Z,15.40
2019-02-18T03:53:43.946Z,14.80
2019-02-18T03:56:21.524Z,15.47
2019-02-18T03:58:59.031Z,15.67
2019-02-18T04:01:36.569Z,15.77
2019-02-18T04:04:17.205Z,15.63
2019-02-18T04:06:54.702Z,14.67
2019-02-18T04:09:32.209Z,13.70
2019-02-18T04:12:09.703Z,14.33
2019-02-18T04:14:57.007Z,15.77
2019-02-18T04:17:34.520Z,14.63
2019-02-18T04:20:12.006Z,16.47
2019-02-18T04:22:49.513Z,14.77
2019-02-18T04:25:30.139Z,15.17
2019-02-18T04:28:07.657Z,15.60
2019-02-18T04:30:45.133Z,14.93
2019-02-18T04:33:22.606Z,15.07
2019-02-18T04:36:03.576Z,15.63
2019-02-18T04:38:41.087Z,15.03
2019-02-18T04:41:18.587Z,14.37
2019-02-18T04:43:56.137Z,14.33
2019-02-18T04:46:33.605Z,14.57
2019-02-18T04:49:11.094Z,14.53
2019-02-18T04:51:48.576Z,14.57
2019-02-18T04:54:35.946Z,14.50
2019-02-18T04:57:13.431Z,14.17
2019-02-18T04:59:50.932Z,14.90
2019-02-18T05:02:28.425Z,15.70
2019-02-18T05:05:09.661Z,14.97
2019-02-18T05:07:47.148Z,13.97
2019-02-18T05:10:24.638Z,15.07
2019-02-18T05:13:02.120Z,14.40
2019-02-18T05:15:46.136Z,13.47
2019-02-18T05:18:23.621Z,12.90
2019-02-18T05:21:01.150Z,14.60
2019-02-18T05:23:38.647Z,14.13
2019-02-18T05:26:16.433Z,13.87
2019-02-18T05:28:53.937Z,15.87
2019-02-18T05:31:31.433Z,16.13
2019-02-18T05:34:18.606Z,14.93
2019-02-18T05:36:56.093Z,14.00
2019-02-18T05:39:33.591Z,14.50
2019-02-18T05:42:11.104Z,13.93
2019-02-18T05:44:52.277Z,15.03
2019-02-18T05:47:29.785Z,14.60
2019-02-18T05:50:07.345Z,13.27
2019-02-18T05:52:44.869Z,14.00
2019-02-18T05:55:32.696Z,14.40
2019-02-18T05:58:10.183Z,13.50
2019-02-18T06:00:47.702Z,13.93
2019-02-18T06:03:25.216Z,13.60
2019-02-18T06:06:02.763Z,13.20
2019-02-18T06:08:40.260Z,13.83
2019-02-18T06:11:17.770Z,14.13
2019-02-18T06:14:08.629Z,13.53
2019-02-18T06:16:46.108Z,13.57
2019-02-18T06:19:23.621Z,13.37
2019-02-18T06:22:01.120Z,14.73
2019-02-18T06:24:48.529Z,16.03
2019-02-18T06:27:26.023Z,14.07
2019-02-18T06:30:03.533Z,14.97
2019-02-18T06:32:41.101Z,14.13
2019-02-18T06:35:18.697Z,15.27
2019-02-18T06:37:56.183Z,14.77
2019-02-18T06:40:33.691Z,14.67
2019-02-18T06:43:11.202Z,15.03
2019-02-18T06:46:21.795Z,13.73
2019-02-18T06:49:10.599Z,13.27
2019-02-18T06:51:48.099Z,14.40
2019-02-18T06:54:28.816Z,14.80
2019-02-18T06:57:31.186Z,16.37
2019-02-18T07:00:24.264Z,13.67
2019-02-18T07:03:36.660Z,14.30
2019-02-18T07:06:21.420Z,13.80
2019-02-18T07:09:08.930Z,14.27
2019-02-18T07:11:57.809Z,14.17
2019-02-18T07:14:35.432Z,14.30
2019-02-18T07:17:12.946Z,16.00
2019-02-18T07:19:50.462Z,15.17
2019-02-18T07:22:27.958Z,13.83
2019-02-18T07:25:13.022Z,15.20
2019-02-18T07:27:50.600Z,14.23
2019-02-18T07:30:28.129Z,13.97
2019-02-18T07:33:05.619Z,14.67
2019-02-18T07:35:43.133Z,14.43
2019-02-18T07:38:20.629Z,13.40
2019-02-18T07:40:58.178Z,14.27
2019-02-18T07:43:39.701Z,13.83
2019-02-18T07:46:17.217Z,14.33
2019-02-18T07:48:54.684Z,14.93
2019-02-18T07:51:32.196Z,15.07
2019-02-18T07:54:19.806Z,15.07
2019-02-18T07:56:57.328Z,14.53
2019-02-18T07:59:34.813Z,14.87
2019-02-18T08:02:12.340Z,14.13
2019-02-18T08:04:49.958Z,14.90
2019-02-18T08:07:27.474Z,17.27
2019-02-18T08:10:11.694Z,17.30
2019-02-18T08:12:42.485Z,16.57
2019-02-18T08:15:26.484Z,16.27
2019-02-18T08:18:03.977Z,15.03
2019-02-18T08:20:41.489Z,15.73
2019-02-18T08:23:25.824Z,14.07
2019-02-18T08:26:03.343Z,14.23
2019-02-18T08:28:40.814Z,14.67
2019-02-18T08:31:18.351Z,14.33
2019-02-18T08:34:02.053Z,14.40
2019-02-18T08:36:39.559Z,14.00
2019-02-18T08:39:17.038Z,14.67
2019-02-18T08:41:54.554Z,15.47
2019-02-18T08:44:34.135Z,15.83
2019-02-18T08:47:11.639Z,15.17
2019-02-18T08:49:49.138Z,15.43
2019-02-18T08:52:26.675Z,14.43
2019-02-18T08:55:15.542Z,14.33
2019-02-18T08:57:53.072Z,14.63
2019-02-18T09:00:30.532Z,14.43
2019-02-18T09:03:17.986Z,13.43
2019-02-18T09:05:55.485Z,14.23
2019-02-18T09:08:32.958Z,14.37
2019-02-18T09:11:10.480Z,14.43
2019-02-18T09:13:48.044Z,14.17
2019-02-18T09:16:25.574Z,14.50
2019-02-18T09:19:03.053Z,15.50
2019-02-18T09:21:40.618Z,14.17
2019-02-18T09:24:32.027Z,15.37
2019-02-18T09:27:09.561Z,16.13
2019-02-18T09:29:47.088Z,15.53
2019-02-18T09:32:24.607Z,14.70
2019-02-18T09:35:02.394Z,13.50
2019-02-18T09:37:39.713Z,14.47
2019-02-18T09:40:17.234Z,14.53
2019-02-18T09:43:10.982Z,14.07
2019-02-18T09:45:48.497Z,13.90
2019-02-18T09:48:25.978Z,13.43
2019-02-18T09:51:03.485Z,14.10
2019-02-18T09:53:44.086Z,13.37
2019-02-18T09:56:21.600Z,13.13
2019-02-18T09:58:59.077Z,14.70
2019-02-18T10:01:36.590Z,14.57
2019-02-18T10:04:14.154Z,13.40
2019-02-18T10:06:51.667Z,12.77
2019-02-18T10:09:29.134Z,12.80
2019-02-18T10:12:06.649Z,13.23
2019-02-18T10:14:44.249Z,13.80
2019-02-18T10:17:21.747Z,14.47
2019-02-18T10:19:59.260Z,13.30
2019-02-18T10:22:36.759Z,12.90
2019-02-18T10:25:14.324Z,13.83
2019-02-18T10:27:51.839Z,12.90
2019-02-18T10:30:29.351Z,14.73
2019-02-18T10:33:11.126Z,13.97
2019-02-18T10:35:48.614Z,14.07
2019-02-18T10:38:26.169Z,14.97
2019-02-18T10:41:06.923Z,14.17
2019-02-18T10:43:57.411Z,14.53
2019-02-18T10:46:34.927Z,14.83
2019-02-18T10:49:19.829Z,17.17
2019-02-18T10:51:49.891Z,14.87
2019-02-18T10:54:27.497Z,15.33
2019-02-18T10:57:04.995Z,14.77
2019-02-18T10:59:42.474Z,17.03
2019-02-18T11:02:19.976Z,15.20
2019-02-18T11:04:57.460Z,16.07
2019-02-18T11:07:34.963Z,15.80
2019-02-18T11:10:15.198Z,18.10
2019-02-18T11:12:52.826Z,17.13
2019-02-18T11:15:30.342Z,16.67
2019-02-18T11:18:07.872Z,17.17
2019-02-18T11:20:45.353Z,17.73
2019-02-18T11:23:47.789Z,17.50
2019-02-18T11:26:25.260Z,17.07
2019-02-18T11:29:02.786Z,16.97
2019-02-18T11:31:40.309Z,18.80
2019-02-18T11:34:36.389Z,17.17
2019-02-18T11:37:13.957Z,18.50
2019-02-18T11:39:51.415Z,17.63
2019-02-18T11:42:29.997Z,17.50
2019-02-18T11:45:07.738Z,16.43
2019-02-18T11:47:45.233Z,17.37
2019-02-18T11:50:22.707Z,16.13
2019-02-18T11:53:10.274Z,17.70
2019-02-18T11:55:47.786Z,17.67
2019-02-18T11:58:25.330Z,18.73
2019-02-18T12:01:02.856Z,19.67
2019-02-18T12:03:40.454Z,17.93
2019-02-18T12:06:17.929Z,17.73
2019-02-18T12:08:55.462Z,16.73
2019-02-18T12:11:37.805Z,18.00
2019-02-18T12:14:13.631Z,17.33
2019-02-18T12:16:51.149Z,18.90
2019-02-18T12:19:28.654Z,19.83
2019-02-18T12:22:06.126Z,20.10
2019-02-18T12:24:43.670Z,20.60
2019-02-18T12:27:21.201Z,20.77
2019-02-18T12:29:58.687Z,19.90
2019-02-18T12:32:38.351Z,18.80
2019-02-18T12:35:15.859Z,18.83
2019-02-18T12:37:55.557Z,18.93
2019-02-18T12:40:30.885Z,19.47
2019-02-18T12:43:21.018Z,17.50
2019-02-18T12:45:58.507Z,18.50
2019-02-18T12:48:35.999Z,19.00
2019-02-18T12:51:13.486Z,18.70
2019-02-18T12:53:51.126Z,19.77
2019-02-18T12:56:28.615Z,18.97
2019-02-18T12:59:06.122Z,18.00
2019-02-18T13:01:43.612Z,19.47
2019-02-18T13:04:37.975Z,18.33
2019-02-18T13:07:15.476Z,15.83
2019-02-18T13:09:52.952Z,16.40
2019-02-18T13:12:30.538Z,15.40
2019-02-18T13:15:09.232Z,16.47
2019-02-18T13:17:46.728Z,16.17
2019-02-18T13:20:24.206Z,16.83
2019-02-18T13:23:08.235Z,14.87
2019-02-18T13:25:47.602Z,16.30
2019-02-18T13:28:23.235Z,17.90
2019-02-18T13:31:00.729Z,17.63
2019-02-18T13:33:51.398Z,16.80
2019-02-18T13:36:28.878Z,14.80
2019-02-18T13:39:07.066Z,14.90
2019-02-18T13:41:44.566Z,13.10
2019-02-18T13:44:22.070Z,14.97
2019-02-18T13:46:59.562Z,15.97
2019-02-18T13:49:37.060Z,13.77
2019-02-18T13:52:15.609Z,15.20
2019-02-18T13:54:53.125Z,15.13
2019-02-18T13:57:30.637Z,14.47
2019-02-18T14:00:10.623Z,14.93
2019-02-18T14:02:54.411Z,14.07
2019-02-18T14:05:31.908Z,14.43
2019-02-18T14:08:09.453Z,13.63
2019-02-18T14:10:46.972Z,12.27
2019-02-18T14:13:24.615Z,12.73
2019-02-18T14:16:02.086Z,13.00
2019-02-18T14:18:39.640Z,12.73
2019-02-18T14:21:17.124Z,12.83
2019-02-18T14:23:55.688Z,13.13
2019-02-18T14:26:33.181Z,13.10
2019-02-18T14:29:10.689Z,12.60
2019-02-18T14:31:54.918Z,11.97
2019-02-18T14:34:32.432Z,11.53
2019-02-18T14:37:09.898Z,11.50
2019-02-18T14:39:47.425Z,11.37
2019-02-18T14:42:25.986Z,10.47
2019-02-18T14:45:03.507Z,11.67
2019-02-18T14:47:43.536Z,11.13
2019-02-18T14:50:21.883Z,11.17
2019-02-18T14:53:17.697Z,10.80
2019-02-18T14:55:55.174Z,10.13
2019-02-18T14:58:32.690Z,10.07
2019-02-18T15:01:10.174Z,9.37
2019-02-18T15:03:47.765Z,10.47
2019-02-18T15:06:25.246Z,10.97
2019-02-18T15:09:02.750Z,9.97
2019-02-18T15:11:40.296Z,10.10
2019-02-18T15:14:17.799Z,9.80
2019-02-18T15:16:55.296Z,9.83
2019-02-18T15:19:32.801Z,10.13
2019-02-18T15:22:10.385Z,10.13
2019-02-18T15:24:47.872Z,9.97
2019-02-18T15:27:25.358Z,9.87
2019-02-18T15:30:02.856Z,9.87
2019-02-18T15:32:40.441Z,10.63
2019-02-18T15:35:17.965Z,10.40
2019-02-18T15:37:55.450Z,10.47
2019-02-18T15:40:33.019Z,10.00
2019-02-18T15:43:10.633Z,10.13
2019-02-18T15:45:48.141Z,10.43
2019-02-18T15:48:25.664Z,10.40
2019-02-18T15:51:03.196Z,9.80
2019-02-18T15:53:40.818Z,10.50
2019-02-18T15:56:18.320Z,10.50
2019-02-18T15:58:55.830Z,9.90
2019-02-18T16:01:38.591Z,10.80
2019-02-18T16:04:16.120Z,10.10
2019-02-18T16:06:53.793Z,11.73
2019-02-18T16:09:31.503Z,16.17
2019-02-18T16:12:10.077Z,13.80
2019-02-18T16:14:47.585Z,11.00
2019-02-18T16:17:25.119Z,10.50
2019-02-18T16:20:02.631Z,11.37
2019-02-18T16:22:53.466Z,10.33
2019-02-18T16:25:30.963Z,9.97
2019-02-18T16:28:08.482Z,10.20
2019-02-18T16:30:46.002Z,10.33
2019-02-18T16:33:24.542Z,10.57
2019-02-18T16:36:02.104Z,11.17
2019-02-18T16:38:39.599Z,10.43
2019-02-18T16:41:23.845Z,10.37
2019-02-18T16:44:01.415Z,10.73
2019-02-18T16:46:38.910Z,11.47
2019-02-18T16:49:16.425Z,10.60
2019-02-18T16:51:55.046Z,10.67
2019-02-18T16:54:32.513Z,10.13
2019-02-18T16:57:10.005Z,10.97
2019-02-18T16:59:47.529Z,10.67
2019-02-18T17:02:31.408Z,10.83
2019-02-18T17:05:09.068Z,11.20
2019-02-18T17:07:46.549Z,11.37
2019-02-18T17:10:24.063Z,11.63
2019-02-18T17:13:07.927Z,11.93
2019-02-18T17:15:39.272Z,12.47
2019-02-18T17:18:16.750Z,13.47
2019-02-18T17:20:54.288Z,12.20
2019-02-18T17:23:31.801Z,13.57
2019-02-18T17:26:09.317Z,12.60
2019-02-18T17:28:46.809Z,12.67
2019-02-18T17:31:37.749Z,11.80
2019-02-18T17:34:15.456Z,13.63
2019-02-18T17:36:52.957Z,12.87
2019-02-18T17:39:30.513Z,13.13
2019-02-18T17:42:08.142Z,12.97
2019-02-18T17:44:45.673Z,13.73
2019-02-18T17:47:23.170Z,12.53
2019-02-18T17:50:00.685Z,11.60
2019-02-18T17:52:38.286Z,12.80
2019-02-18T17:55:16.549Z,14.27
2019-02-18T17:57:54.053Z,14.00
2019-02-18T18:00:31.980Z,15.57
2019-02-18T18:03:23.951Z,15.77
2019-02-18T18:06:01.471Z,14.77
2019-02-18T18:08:38.997Z,16.50
2019-02-18T18:11:28.290Z,17.53
2019-02-18T18:14:05.821Z,16.10
2019-02-18T18:16:43.372Z,16.17
2019-02-18T18:19:20.967Z,19.23
2019-02-18T18:21:59.704Z,32.00
2019-02-18T18:24:37.411Z,28.20
2019-02-18T18:27:14.998Z,25.17
2019-02-18T18:29:52.654Z,21.73
2019-02-18T18:32:36.730Z,17.90
2019-02-18T18:35:14.773Z,16.60
2019-02-18T18:37:52.470Z,17.10
2019-02-18T18:40:30.098Z,14.10
2019-02-18T18:43:07.646Z,15.10
2019-02-18T18:45:45.208Z,14.50
2019-02-18T18:48:22.859Z,13.70
2019-02-18T18:51:01.760Z,15.23
2019-02-18T18:53:39.390Z,12.93
2019-02-18T18:56:16.893Z,13.60
2019-02-18T18:58:54.436Z,11.73
2019-02-18T19:02:16.695Z,13.57
2019-02-18T19:04:54.553Z,14.47
2019-02-18T19:07:32.115Z,14.53
2019-02-18T19:10:09.921Z,13.67
2019-02-18T19:12:48.565Z,14.70
2019-02-18T19:15:26.386Z,16.33
2019-02-18T19:18:03.919Z,16.03
2019-02-18T19:20:52.096Z,16.67
2019-02-18T19:23:29.678Z,16.03
2019-02-18T19:26:07.346Z,15.33
2019-02-18T19:28:46.520Z,14.30
2019-02-18T19:31:35.760Z,15.87
2019-02-18T19:34:13.370Z,13.70
2019-02-18T19:36:51.142Z,15.43
2019-02-18T19:39:28.709Z,13.50
2019-02-18T19:42:18.532Z,13.00
2019-02-18T19:44:56.097Z,13.20
2019-02-18T19:47:33.780Z,11.90
2019-02-18T19:50:11.408Z,13.30
2019-02-18T19:52:49.166Z,18.30
2019-02-18T19:55:26.979Z,17.33
2019-02-18T19:58:04.819Z,18.00
2019-02-18T20:00:46.663Z,16.73
2019-02-18T20:03:24.180Z,16.50
2019-02-18T20:06:01.693Z,13.13
2019-02-18T20:08:39.207Z,15.20
2019-02-18T20:12:06.886Z,12.80
2019-02-18T20:14:44.451Z,12.97
2019-02-18T20:17:22.016Z,12.70
2019-02-18T20:19:59.892Z,12.83
2019-02-18T20:22:41.252Z,12.17
2019-02-18T20:25:18.989Z,12.53
2019-02-18T20:27:56.583Z,12.13
2019-02-18T20:30:34.266Z,11.57
2019-02-18T20:33:11.868Z,11.87
2019-02-18T20:35:49.442Z,10.60
2019-02-18T20:38:27.068Z,10.73
2019-02-18T20:41:25.757Z,12.97
2019-02-18T20:44:07.578Z,12.03
2019-02-18T20:46:40.794Z,11.67
2019-02-18T20:49:18.278Z,11.23
2019-02-18T20:51:55.815Z,10.70
2019-02-18T20:54:34.060Z,11.17
2019-02-18T20:57:12.340Z,10.70
2019-02-18T20:59:50.830Z,10.57
2019-02-18T21:02:30.505Z,9.87
2019-02-18T21:05:08.915Z,9.97
2019-02-18T21:07:47.317Z,10.07
2019-02-18T21:10:25.975Z,10.07
2019-02-18T21:13:04.867Z,11.90
2019-02-18T21:15:43.259Z,12.00
2019-02-18T21:18:21.907Z,11.90
2019-02-18T21:21:00.735Z,11.60
2019-02-18T21:23:38.216Z,11.20
2019-02-18T21:26:15.849Z,12.07
2019-02-18T21:28:53.373Z,10.97
2019-02-18T21:31:31.027Z,11.07
2019-02-18T21:34:08.473Z,10.00
2019-02-18T21:36:45.964Z,10.60
2019-02-18T21:39:24.798Z,9.97
2019-02-18T21:42:04.629Z,10.03
2019-02-18T21:44:42.113Z,10.67
2019-02-18T21:47:19.630Z,9.73
2019-02-18T21:50:03.442Z,10.23
2019-02-18T21:52:40.965Z,9.40
2019-02-18T21:55:18.985Z,9.97
2019-02-18T21:57:56.486Z,9.43
2019-02-18T22:00:40.870Z,10.07
2019-02-18T22:03:18.387Z,11.93
2019-02-18T22:05:55.864Z,11.17
2019-02-18T22:08:33.373Z,10.73
2019-02-18T22:11:10.939Z,11.10
2019-02-18T22:13:48.443Z,11.53
2019-02-18T22:16:25.966Z,11.03
2019-02-18T22:19:03.460Z,11.10
2019-02-18T22:21:44.228Z,11.40
2019-02-18T22:24:21.714Z,10.93
2019-02-18T22:26:59.223Z,11.17
2019-02-18T22:29:36.735Z,10.97
2019-02-18T22:32:14.251Z,10.10
2019-02-18T22:34:51.740Z,11.57
2019-02-18T22:37:29.260Z,11.37
2019-02-18T22:40:07.296Z,10.67
2019-02-18T22:42:44.799Z,11.47
2019-02-18T22:45:22.284Z,11.07
2019-02-18T22:47:59.799Z,10.63
2019-02-18T22:50:58.730Z,12.20
2019-02-18T22:53:36.234Z,10.70
2019-02-18T22:56:13.711Z,11.43
2019-02-18T22:58:51.198Z,11.60
2019-02-18T23:01:28.774Z,11.73
2019-02-18T23:04:06.277Z,11.73
2019-02-18T23:06:43.769Z,12.07
2019-02-18T23:09:21.267Z,11.10
2019-02-18T23:11:58.795Z,10.90
2019-02-18T23:14:36.282Z,11.53
2019-02-18T23:17:13.773Z,10.97
2019-02-18T23:19:54.498Z,10.40
2019-02-18T23:22:32.006Z,11.30
2019-02-18T23:25:09.481Z,9.97
2019-02-18T23:27:47.005Z,10.90
2019-02-18T23:30:27.837Z,10.13
2019-02-18T23:33:05.351Z,10.73
2019-02-18T23:35:42.837Z,10.63
2019-02-18T23:38:20.351Z,10.33
2019-02-18T23:41:16.013Z,10.43
2019-02-18T23:43:53.511Z,10.33
2019-02-18T23:46:31.005Z,9.83
2019-02-18T23:49:08.507Z,10.53
2019-02-18T23:51:46.097Z,10.63
2019-02-18T23:54:23.628Z,9.93
2019-02-18T23:57:01.118Z,10.27
2019-02-18T23:59:38.701Z,10.00
